sensor_id;sensor_type;location;lat;lon;timestamp;temperature;humidity
47861;HTU21D;33620;52.340;5.984;2023-04-03T00:00:03;5.28;67.42
47861;HTU21D;33620;52.340;5.984;2023-04-03T00:02:28;5.26;67.39
47861;HTU21D;33620;52.340;5.984;2023-04-03T00:04:54;5.20;67.52
47861;HTU21D;33620;52.340;5.984;2023-04-03T00:07:19;5.18;67.75
47861;HTU21D;33620;52.340;5.984;2023-04-03T00:09:45;5.19;67.89
47861;HTU21D;33620;52.340;5.984;2023-04-03T00:12:10;5.18;68.02
47861;HTU21D;33620;52.340;5.984;2023-04-03T00:14:36;5.21;68.07
47861;HTU21D;33620;52.340;5.984;2023-04-03T00:17:01;5.18;68.29
47861;HTU21D;33620;52.340;5.984;2023-04-03T00:19:26;5.17;67.88
47861;HTU21D;33620;52.340;5.984;2023-04-03T00:21:51;5.15;68.36
47861;HTU21D;33620;52.340;5.984;2023-04-03T00:24:18;5.15;68.12
47861;HTU21D;33620;52.340;5.984;2023-04-03T00:26:44;5.08;68.36
47861;HTU21D;33620;52.340;5.984;2023-04-03T00:29:09;5.06;68.53
47861;HTU21D;33620;52.340;5.984;2023-04-03T00:31:35;5.04;68.68
47861;HTU21D;33620;52.340;5.984;2023-04-03T00:34:00;5.01;68.94
47861;HTU21D;33620;52.340;5.984;2023-04-03T00:36:25;5.01;68.84
47861;HTU21D;33620;52.340;5.984;2023-04-03T00:38:51;4.98;68.95
47861;HTU21D;33620;52.340;5.984;2023-04-03T00:41:16;4.98;69.26
47861;HTU21D;33620;52.340;5.984;2023-04-03T00:43:41;5.04;69.13
47861;HTU21D;33620;52.340;5.984;2023-04-03T00:46:07;5.06;68.98
47861;HTU21D;33620;52.340;5.984;2023-04-03T00:48:40;5.03;69.20
47861;HTU21D;33620;52.340;5.984;2023-04-03T00:51:07;4.98;69.22
47861;HTU21D;33620;52.340;5.984;2023-04-03T00:53:35;4.95;69.31
47861;HTU21D;33620;52.340;5.984;2023-04-03T00:56:02;4.93;69.64
47861;HTU21D;33620;52.340;5.984;2023-04-03T00:58:34;4.90;69.57
47861;HTU21D;33620;52.340;5.984;2023-04-03T01:01:03;4.90;69.61
47861;HTU21D;33620;52.340;5.984;2023-04-03T01:03:30;4.84;69.91
47861;HTU21D;33620;52.340;5.984;2023-04-03T01:05:56;4.87;70.16
47861;HTU21D;33620;52.340;5.984;2023-04-03T01:08:21;4.84;69.93
47861;HTU21D;33620;52.340;5.984;2023-04-03T01:10:47;4.84;70.29
47861;HTU21D;33620;52.340;5.984;2023-04-03T01:13:29;4.80;70.08
47861;HTU21D;33620;52.340;5.984;2023-04-03T01:15:54;4.78;70.45
47861;HTU21D;33620;52.340;5.984;2023-04-03T01:18:21;4.79;70.64
47861;HTU21D;33620;52.340;5.984;2023-04-03T01:23:36;4.83;70.56
47861;HTU21D;33620;52.340;5.984;2023-04-03T01:26:03;4.80;70.73
47861;HTU21D;33620;52.340;5.984;2023-04-03T01:28:31;4.76;70.64
47861;HTU21D;33620;52.340;5.984;2023-04-03T01:33:21;4.72;71.06
47861;HTU21D;33620;52.340;5.984;2023-04-03T01:35:47;4.67;70.90
47861;HTU21D;33620;52.340;5.984;2023-04-03T01:38:12;4.66;71.46
47861;HTU21D;33620;52.340;5.984;2023-04-03T01:40:37;4.66;71.38
47861;HTU21D;33620;52.340;5.984;2023-04-03T01:43:03;4.67;71.75
47861;HTU21D;33620;52.340;5.984;2023-04-03T01:45:28;4.64;71.59
47861;HTU21D;33620;52.340;5.984;2023-04-03T01:47:53;4.58;71.81
47861;HTU21D;33620;52.340;5.984;2023-04-03T01:50:19;4.50;72.13
47861;HTU21D;33620;52.340;5.984;2023-04-03T01:52:44;4.48;72.40
47861;HTU21D;33620;52.340;5.984;2023-04-03T01:55:09;4.49;72.52
47861;HTU21D;33620;52.340;5.984;2023-04-03T01:57:35;4.44;72.61
47861;HTU21D;33620;52.340;5.984;2023-04-03T02:00:00;4.41;72.99
47861;HTU21D;33620;52.340;5.984;2023-04-03T02:02:25;4.41;73.15
47861;HTU21D;33620;52.340;5.984;2023-04-03T02:04:50;4.36;73.17
47861;HTU21D;33620;52.340;5.984;2023-04-03T02:07:16;4.28;73.59
47861;HTU21D;33620;52.340;5.984;2023-04-03T02:09:41;4.22;73.67
47861;HTU21D;33620;52.340;5.984;2023-04-03T02:12:06;4.20;74.06
47861;HTU21D;33620;52.340;5.984;2023-04-03T02:14:32;4.21;74.14
47861;HTU21D;33620;52.340;5.984;2023-04-03T02:16:57;4.19;74.39
47861;HTU21D;33620;52.340;5.984;2023-04-03T02:19:22;4.16;74.41
47861;HTU21D;33620;52.340;5.984;2023-04-03T02:21:48;4.13;74.60
47861;HTU21D;33620;52.340;5.984;2023-04-03T02:24:13;4.08;74.87
47861;HTU21D;33620;52.340;5.984;2023-04-03T02:26:38;4.08;74.95
47861;HTU21D;33620;52.340;5.984;2023-04-03T02:29:04;4.04;75.01
47861;HTU21D;33620;52.340;5.984;2023-04-03T02:31:30;4.02;75.38
47861;HTU21D;33620;52.340;5.984;2023-04-03T02:33:55;3.98;75.47
47861;HTU21D;33620;52.340;5.984;2023-04-03T02:36:20;3.92;75.79
47861;HTU21D;33620;52.340;5.984;2023-04-03T02:38:45;3.94;75.76
47861;HTU21D;33620;52.340;5.984;2023-04-03T02:41:11;3.88;76.08
47861;HTU21D;33620;52.340;5.984;2023-04-03T02:43:37;3.85;76.24
47861;HTU21D;33620;52.340;5.984;2023-04-03T02:46:03;3.82;76.44
47861;HTU21D;33620;52.340;5.984;2023-04-03T02:48:28;3.85;76.60
47861;HTU21D;33620;52.340;5.984;2023-04-03T02:50:53;3.86;76.60
47861;HTU21D;33620;52.340;5.984;2023-04-03T02:53:19;3.86;76.49
47861;HTU21D;33620;52.340;5.984;2023-04-03T02:55:44;3.86;76.52
47861;HTU21D;33620;52.340;5.984;2023-04-03T02:58:10;3.85;76.60
47861;HTU21D;33620;52.340;5.984;2023-04-03T03:00:35;3.85;76.83
47861;HTU21D;33620;52.340;5.984;2023-04-03T03:03:01;3.90;76.70
47861;HTU21D;33620;52.340;5.984;2023-04-03T03:05:26;3.92;76.39
47861;HTU21D;33620;52.340;5.984;2023-04-03T03:07:52;3.92;76.63
47861;HTU21D;33620;52.340;5.984;2023-04-03T03:10:17;3.92;76.49
47861;HTU21D;33620;52.340;5.984;2023-04-03T03:12:43;3.93;76.52
47861;HTU21D;33620;52.340;5.984;2023-04-03T03:15:08;3.98;76.65
47861;HTU21D;33620;52.340;5.984;2023-04-03T03:17:33;3.97;76.32
47861;HTU21D;33620;52.340;5.984;2023-04-03T03:19:59;3.97;76.39
47861;HTU21D;33620;52.340;5.984;2023-04-03T03:22:25;3.94;76.34
47861;HTU21D;33620;52.340;5.984;2023-04-03T03:24:50;3.94;76.47
47861;HTU21D;33620;52.340;5.984;2023-04-03T03:27:15;3.95;76.44
47861;HTU21D;33620;52.340;5.984;2023-04-03T03:29:41;3.99;76.60
47861;HTU21D;33620;52.340;5.984;2023-04-03T03:32:06;3.94;76.44
47861;HTU21D;33620;52.340;5.984;2023-04-03T03:34:32;3.97;76.41
47861;HTU21D;33620;52.340;5.984;2023-04-03T03:36:57;3.95;76.21
47861;HTU21D;33620;52.340;5.984;2023-04-03T03:39:22;3.92;76.36
47861;HTU21D;33620;52.340;5.984;2023-04-03T03:41:48;3.90;76.27
47861;HTU21D;33620;52.340;5.984;2023-04-03T03:44:14;3.84;76.63
47861;HTU21D;33620;52.340;5.984;2023-04-03T03:46:40;3.80;76.72
47861;HTU21D;33620;52.340;5.984;2023-04-03T03:49:05;3.78;77.08
47861;HTU21D;33620;52.340;5.984;2023-04-03T03:51:30;3.82;77.18
47861;HTU21D;33620;52.340;5.984;2023-04-03T03:53:56;3.80;76.72
47861;HTU21D;33620;52.340;5.984;2023-04-03T03:56:21;3.77;76.94
47861;HTU21D;33620;52.340;5.984;2023-04-03T03:58:47;3.78;76.98
47861;HTU21D;33620;52.340;5.984;2023-04-03T04:01:12;3.77;76.77
47861;HTU21D;33620;52.340;5.984;2023-04-03T04:03:37;3.77;76.99
47861;HTU21D;33620;52.340;5.984;2023-04-03T04:06:03;3.79;76.86
47861;HTU21D;33620;52.340;5.984;2023-04-03T04:08:28;3.80;76.89
47861;HTU21D;33620;52.340;5.984;2023-04-03T04:10:53;3.80;76.53
47861;HTU21D;33620;52.340;5.984;2023-04-03T04:13:18;3.78;76.88
47861;HTU21D;33620;52.340;5.984;2023-04-03T04:15:44;3.82;76.86
47861;HTU21D;33620;52.340;5.984;2023-04-03T04:18:09;3.80;76.73
47861;HTU21D;33620;52.340;5.984;2023-04-03T04:20:35;3.79;76.79
47861;HTU21D;33620;52.340;5.984;2023-04-03T04:23:00;3.76;76.56
47861;HTU21D;33620;52.340;5.984;2023-04-03T04:25:25;3.75;76.83
47861;HTU21D;33620;52.340;5.984;2023-04-03T04:27:50;3.75;76.79
47861;HTU21D;33620;52.340;5.984;2023-04-03T04:30:16;3.72;76.76
47861;HTU21D;33620;52.340;5.984;2023-04-03T04:32:41;3.72;76.73
47861;HTU21D;33620;52.340;5.984;2023-04-03T04:35:06;3.72;76.79
47861;HTU21D;33620;52.340;5.984;2023-04-03T04:37:32;3.71;76.78
47861;HTU21D;33620;52.340;5.984;2023-04-03T04:39:57;3.70;76.84
47861;HTU21D;33620;52.340;5.984;2023-04-03T04:42:22;3.69;76.81
47861;HTU21D;33620;52.340;5.984;2023-04-03T04:44:48;3.64;76.57
47861;HTU21D;33620;52.340;5.984;2023-04-03T04:47:13;3.64;76.70
47861;HTU21D;33620;52.340;5.984;2023-04-03T04:49:38;3.56;76.52
47861;HTU21D;33620;52.340;5.984;2023-04-03T04:52:04;3.49;76.73
47861;HTU21D;33620;52.340;5.984;2023-04-03T04:54:29;3.49;76.95
47861;HTU21D;33620;52.340;5.984;2023-04-03T04:56:54;3.41;76.79
47861;HTU21D;33620;52.340;5.984;2023-04-03T04:59:20;3.30;77.02
47861;HTU21D;33620;52.340;5.984;2023-04-03T05:01:45;3.23;77.21
47861;HTU21D;33620;52.340;5.984;2023-04-03T05:04:11;3.16;77.64
47861;HTU21D;33620;52.340;5.984;2023-04-03T05:06:37;3.16;77.69
47861;HTU21D;33620;52.340;5.984;2023-04-03T05:09:03;3.13;77.60
47861;HTU21D;33620;52.340;5.984;2023-04-03T05:11:28;3.09;77.92
47861;HTU21D;33620;52.340;5.984;2023-04-03T05:13:53;3.06;77.94
47861;HTU21D;33620;52.340;5.984;2023-04-03T05:16:19;3.06;78.01
47861;HTU21D;33620;52.340;5.984;2023-04-03T05:18:44;3.09;78.21
47861;HTU21D;33620;52.340;5.984;2023-04-03T05:21:10;3.06;78.02
47861;HTU21D;33620;52.340;5.984;2023-04-03T05:23:35;3.02;77.93
47861;HTU21D;33620;52.340;5.984;2023-04-03T05:26:00;3.02;78.05
47861;HTU21D;33620;52.340;5.984;2023-04-03T05:28:25;2.99;78.03
47861;HTU21D;33620;52.340;5.984;2023-04-03T05:30:55;2.94;78.32
47861;HTU21D;33620;52.340;5.984;2023-04-03T05:33:20;2.88;78.52
47861;HTU21D;33620;52.340;5.984;2023-04-03T05:35:46;2.86;78.61
47861;HTU21D;33620;52.340;5.984;2023-04-03T05:38:11;2.83;78.68
47861;HTU21D;33620;52.340;5.984;2023-04-03T05:40:37;2.80;78.74
47861;HTU21D;33620;52.340;5.984;2023-04-03T05:43:02;2.75;78.82
47861;HTU21D;33620;52.340;5.984;2023-04-03T05:45:27;2.70;79.15
47861;HTU21D;33620;52.340;5.984;2023-04-03T05:47:53;2.71;79.18
47861;HTU21D;33620;52.340;5.984;2023-04-03T05:50:18;2.69;79.23
47861;HTU21D;33620;52.340;5.984;2023-04-03T05:52:44;2.64;79.53
47861;HTU21D;33620;52.340;5.984;2023-04-03T05:55:10;2.62;79.59
47861;HTU21D;33620;52.340;5.984;2023-04-03T05:57:35;2.61;79.59
47861;HTU21D;33620;52.340;5.984;2023-04-03T06:00:00;2.58;79.82
47861;HTU21D;33620;52.340;5.984;2023-04-03T06:02:26;2.49;79.89
47861;HTU21D;33620;52.340;5.984;2023-04-03T06:04:52;2.44;80.35
47861;HTU21D;33620;52.340;5.984;2023-04-03T06:07:18;2.51;80.43
47861;HTU21D;33620;52.340;5.984;2023-04-03T06:09:46;2.53;80.00
47861;HTU21D;33620;52.340;5.984;2023-04-03T06:12:11;2.57;80.12
47861;HTU21D;33620;52.340;5.984;2023-04-03T06:14:36;2.59;80.17
47861;HTU21D;33620;52.340;5.984;2023-04-03T06:17:02;2.60;79.88
47861;HTU21D;33620;52.340;5.984;2023-04-03T06:19:28;2.62;79.80
47861;HTU21D;33620;52.340;5.984;2023-04-03T06:21:53;2.60;79.60
47861;HTU21D;33620;52.340;5.984;2023-04-03T06:24:19;2.66;79.69
47861;HTU21D;33620;52.340;5.984;2023-04-03T06:26:46;2.65;79.57
47861;HTU21D;33620;52.340;5.984;2023-04-03T06:29:12;2.70;79.27
47861;HTU21D;33620;52.340;5.984;2023-04-03T06:31:37;2.76;79.37
47861;HTU21D;33620;52.340;5.984;2023-04-03T06:34:03;2.78;79.42
47861;HTU21D;33620;52.340;5.984;2023-04-03T06:36:28;2.82;79.10
47861;HTU21D;33620;52.340;5.984;2023-04-03T06:38:55;2.85;78.82
47861;HTU21D;33620;52.340;5.984;2023-04-03T06:41:20;2.87;78.83
47861;HTU21D;33620;52.340;5.984;2023-04-03T06:43:46;2.89;78.50
47861;HTU21D;33620;52.340;5.984;2023-04-03T06:46:15;2.86;78.03
47861;HTU21D;33620;52.340;5.984;2023-04-03T06:48:40;2.81;78.44
47861;HTU21D;33620;52.340;5.984;2023-04-03T06:51:06;2.76;78.56
47861;HTU21D;33620;52.340;5.984;2023-04-03T06:53:31;2.81;78.92
47861;HTU21D;33620;52.340;5.984;2023-04-03T06:55:57;2.81;78.64
47861;HTU21D;33620;52.340;5.984;2023-04-03T06:58:22;2.90;78.56
47861;HTU21D;33620;52.340;5.984;2023-04-03T07:00:47;2.93;77.81
47861;HTU21D;33620;52.340;5.984;2023-04-03T07:03:12;2.90;77.69
47861;HTU21D;33620;52.340;5.984;2023-04-03T07:05:38;2.99;78.11
47861;HTU21D;33620;52.340;5.984;2023-04-03T07:08:03;3.09;78.31
47861;HTU21D;33620;52.340;5.984;2023-04-03T07:10:28;3.13;78.08
47861;HTU21D;33620;52.340;5.984;2023-04-03T07:12:54;3.15;77.60
47861;HTU21D;33620;52.340;5.984;2023-04-03T07:15:19;3.16;77.71
47861;HTU21D;33620;52.340;5.984;2023-04-03T07:17:44;3.20;77.41
47861;HTU21D;33620;52.340;5.984;2023-04-03T07:20:11;3.25;76.33
47861;HTU21D;33620;52.340;5.984;2023-04-03T07:22:36;3.25;75.94
47861;HTU21D;33620;52.340;5.984;2023-04-03T07:25:02;3.24;75.30
47861;HTU21D;33620;52.340;5.984;2023-04-03T07:27:27;3.28;75.45
47861;HTU21D;33620;52.340;5.984;2023-04-03T07:29:53;3.34;75.90
47861;HTU21D;33620;52.340;5.984;2023-04-03T07:32:18;3.36;75.07
47861;HTU21D;33620;52.340;5.984;2023-04-03T07:34:43;3.35;74.09
47861;HTU21D;33620;52.340;5.984;2023-04-03T07:37:09;3.38;73.74
47861;HTU21D;33620;52.340;5.984;2023-04-03T07:39:34;3.47;74.27
47861;HTU21D;33620;52.340;5.984;2023-04-03T07:42:00;3.54;73.48
47861;HTU21D;33620;52.340;5.984;2023-04-03T07:44:25;3.62;73.82
47861;HTU21D;33620;52.340;5.984;2023-04-03T07:46:51;3.71;73.77
47861;HTU21D;33620;52.340;5.984;2023-04-03T07:49:17;3.75;72.15
47861;HTU21D;33620;52.340;5.984;2023-04-03T07:51:43;3.83;72.13
47861;HTU21D;33620;52.340;5.984;2023-04-03T07:54:09;3.88;70.90
47861;HTU21D;33620;52.340;5.984;2023-04-03T07:56:34;3.93;70.83
47861;HTU21D;33620;52.340;5.984;2023-04-03T07:59:00;4.04;70.90
47861;HTU21D;33620;52.340;5.984;2023-04-03T08:01:25;4.14;70.62
47861;HTU21D;33620;52.340;5.984;2023-04-03T08:03:50;4.22;70.28
47861;HTU21D;33620;52.340;5.984;2023-04-03T08:06:16;4.31;70.35
47861;HTU21D;33620;52.340;5.984;2023-04-03T08:08:41;4.38;67.80
47861;HTU21D;33620;52.340;5.984;2023-04-03T08:11:06;4.42;67.01
47861;HTU21D;33620;52.340;5.984;2023-04-03T08:13:33;4.45;67.97
47861;HTU21D;33620;52.340;5.984;2023-04-03T08:16:06;4.53;67.66
47861;HTU21D;33620;52.340;5.984;2023-04-03T08:18:32;4.58;66.32
47861;HTU21D;33620;52.340;5.984;2023-04-03T08:20:57;4.63;65.95
47861;HTU21D;33620;52.340;5.984;2023-04-03T08:23:22;4.62;65.51
47861;HTU21D;33620;52.340;5.984;2023-04-03T08:25:48;4.64;64.84
47861;HTU21D;33620;52.340;5.984;2023-04-03T08:28:13;4.72;65.08
47861;HTU21D;33620;52.340;5.984;2023-04-03T08:30:39;4.76;64.26
47861;HTU21D;33620;52.340;5.984;2023-04-03T08:33:05;4.82;64.29
47861;HTU21D;33620;52.340;5.984;2023-04-03T08:35:31;4.90;63.87
47861;HTU21D;33620;52.340;5.984;2023-04-03T08:37:56;4.95;62.62
47861;HTU21D;33620;52.340;5.984;2023-04-03T08:40:21;4.96;63.06
47861;HTU21D;33620;52.340;5.984;2023-04-03T08:45:25;5.16;62.27
47861;HTU21D;33620;52.340;5.984;2023-04-03T08:47:58;5.25;62.19
47861;HTU21D;33620;52.340;5.984;2023-04-03T08:50:34;5.33;60.67
47861;HTU21D;33620;52.340;5.984;2023-04-03T08:53:00;5.45;60.26
47861;HTU21D;33620;52.340;5.984;2023-04-03T08:55:28;5.51;59.03
47861;HTU21D;33620;52.340;5.984;2023-04-03T08:57:58;5.61;59.11
47861;HTU21D;33620;52.340;5.984;2023-04-03T09:00:25;5.66;59.14
47861;HTU21D;33620;52.340;5.984;2023-04-03T09:02:53;5.69;58.06
47861;HTU21D;33620;52.340;5.984;2023-04-03T09:05:19;5.81;58.70
47861;HTU21D;33620;52.340;5.984;2023-04-03T09:07:47;5.86;57.39
47861;HTU21D;33620;52.340;5.984;2023-04-03T09:10:13;5.91;55.42
47861;HTU21D;33620;52.340;5.984;2023-04-03T09:12:40;5.96;51.69
47861;HTU21D;33620;52.340;5.984;2023-04-03T09:22:32;6.33;46.78
47861;HTU21D;33620;52.340;5.984;2023-04-03T09:25:00;6.37;46.14
47861;HTU21D;33620;52.340;5.984;2023-04-03T09:27:26;6.42;47.39
47861;HTU21D;33620;52.340;5.984;2023-04-03T09:29:53;6.45;45.09
47861;HTU21D;33620;52.340;5.984;2023-04-03T09:32:21;6.52;46.30
47861;HTU21D;33620;52.340;5.984;2023-04-03T09:34:47;6.58;45.98
47861;HTU21D;33620;52.340;5.984;2023-04-03T09:37:32;6.64;41.94
47861;HTU21D;33620;52.340;5.984;2023-04-03T09:39:58;6.67;43.50
47861;HTU21D;33620;52.340;5.984;2023-04-03T09:42:24;6.79;44.96
47861;HTU21D;33620;52.340;5.984;2023-04-03T09:44:54;6.96;46.57
47861;HTU21D;33620;52.340;5.984;2023-04-03T09:49:51;7.16;43.73
47861;HTU21D;33620;52.340;5.984;2023-04-03T09:52:34;7.27;46.94
47861;HTU21D;33620;52.340;5.984;2023-04-03T09:55:06;7.37;45.25
47861;HTU21D;33620;52.340;5.984;2023-04-03T09:57:32;7.42;43.86
47861;HTU21D;33620;52.340;5.984;2023-04-03T09:59:58;7.45;40.68
47861;HTU21D;33620;52.340;5.984;2023-04-03T10:04:59;7.52;39.75
47861;HTU21D;33620;52.340;5.984;2023-04-03T10:07:29;7.65;40.96
47861;HTU21D;33620;52.340;5.984;2023-04-03T10:10:03;7.79;41.01
47861;HTU21D;33620;52.340;5.984;2023-04-03T10:12:28;7.89;40.73
47861;HTU21D;33620;52.340;5.984;2023-04-03T10:15:00;7.99;40.34
47861;HTU21D;33620;52.340;5.984;2023-04-03T10:19:58;7.98;38.22
47861;HTU21D;33620;52.340;5.984;2023-04-03T10:22:39;7.92;38.84
47861;HTU21D;33620;52.340;5.984;2023-04-03T10:25:19;7.84;34.73
47861;HTU21D;33620;52.340;5.984;2023-04-03T10:27:53;7.84;36.59
47861;HTU21D;33620;52.340;5.984;2023-04-03T10:32:57;8.02;38.74
47861;HTU21D;33620;52.340;5.984;2023-04-03T10:38:08;8.04;36.98
47861;HTU21D;33620;52.340;5.984;2023-04-03T10:40:47;8.09;37.62
47861;HTU21D;33620;52.340;5.984;2023-04-03T10:43:24;8.22;38.12
47861;HTU21D;33620;52.340;5.984;2023-04-03T10:45:54;8.23;37.80
47861;HTU21D;33620;52.340;5.984;2023-04-03T10:53:39;8.52;39.00
47861;HTU21D;33620;52.340;5.984;2023-04-03T10:58:58;8.62;39.65
47861;HTU21D;33620;52.340;5.984;2023-04-03T11:01:28;8.64;37.87
47861;HTU21D;33620;52.340;5.984;2023-04-03T11:03:59;8.70;38.98
47861;HTU21D;33620;52.340;5.984;2023-04-03T11:06:34;8.81;39.64
47861;HTU21D;33620;52.340;5.984;2023-04-03T11:09:07;8.91;39.89
47861;HTU21D;33620;52.340;5.984;2023-04-03T11:11:37;8.90;38.32
47861;HTU21D;33620;52.340;5.984;2023-04-03T11:14:24;8.82;38.51
47861;HTU21D;33620;52.340;5.984;2023-04-03T11:16:54;8.73;38.28
47861;HTU21D;33620;52.340;5.984;2023-04-03T11:19:21;8.87;39.12
47861;HTU21D;33620;52.340;5.984;2023-04-03T11:22:00;8.88;37.06
47861;HTU21D;33620;52.340;5.984;2023-04-03T11:24:29;8.77;38.89
47861;HTU21D;33620;52.340;5.984;2023-04-03T11:26:56;8.90;37.98
47861;HTU21D;33620;52.340;5.984;2023-04-03T11:29:23;9.05;40.28
47861;HTU21D;33620;52.340;5.984;2023-04-03T11:34:47;9.05;37.30
47861;HTU21D;33620;52.340;5.984;2023-04-03T11:37:25;9.08;37.01
47861;HTU21D;33620;52.340;5.984;2023-04-03T11:40:00;9.12;38.11
47861;HTU21D;33620;52.340;5.984;2023-04-03T11:45:15;9.32;38.65
47861;HTU21D;33620;52.340;5.984;2023-04-03T11:47:45;9.38;38.31
47861;HTU21D;33620;52.340;5.984;2023-04-03T11:52:56;9.34;37.26
47861;HTU21D;33620;52.340;5.984;2023-04-03T12:11:13;9.49;38.48
47861;HTU21D;33620;52.340;5.984;2023-04-03T12:13:31;9.46;38.19
47861;HTU21D;33620;52.340;5.984;2023-04-03T12:15:56;9.49;38.42
47861;HTU21D;33620;52.340;5.984;2023-04-03T12:21:20;9.65;40.80
47861;HTU21D;33620;52.340;5.984;2023-04-03T12:26:21;9.72;39.81
47861;HTU21D;33620;52.340;5.984;2023-04-03T12:28:48;9.68;37.19
47861;HTU21D;33620;52.340;5.984;2023-04-03T12:31:13;9.59;37.37
47861;HTU21D;33620;52.340;5.984;2023-04-03T12:36:23;9.61;39.83
47861;HTU21D;33620;52.340;5.984;2023-04-03T12:38:58;9.74;38.04
47861;HTU21D;33620;52.340;5.984;2023-04-03T12:46:36;9.89;36.84
47861;HTU21D;33620;52.340;5.984;2023-04-03T12:49:10;9.82;36.94
47861;HTU21D;33620;52.340;5.984;2023-04-03T12:51:38;9.84;37.82
47861;HTU21D;33620;52.340;5.984;2023-04-03T12:56:42;10.00;38.67
47861;HTU21D;33620;52.340;5.984;2023-04-03T13:01:39;10.11;38.78
47861;HTU21D;33620;52.340;5.984;2023-04-03T13:04:05;10.16;38.59
47861;HTU21D;33620;52.340;5.984;2023-04-03T13:06:32;10.20;39.24
47861;HTU21D;33620;52.340;5.984;2023-04-03T13:09:00;10.23;40.62
47861;HTU21D;33620;52.340;5.984;2023-04-03T13:11:27;10.34;38.30
47861;HTU21D;33620;52.340;5.984;2023-04-03T13:14:37;10.33;38.17
47861;HTU21D;33620;52.340;5.984;2023-04-03T13:16:56;10.37;39.87
47861;HTU21D;33620;52.340;5.984;2023-04-03T13:19:23;10.45;39.62
47861;HTU21D;33620;52.340;5.984;2023-04-03T13:21:49;10.48;40.32
47861;HTU21D;33620;52.340;5.984;2023-04-03T13:24:18;10.45;39.86
47861;HTU21D;33620;52.340;5.984;2023-04-03T13:26:44;10.37;37.30
47861;HTU21D;33620;52.340;5.984;2023-04-03T13:29:23;10.28;38.46
47861;HTU21D;33620;52.340;5.984;2023-04-03T13:31:51;10.19;38.72
47861;HTU21D;33620;52.340;5.984;2023-04-03T13:34:18;10.14;38.03
47861;HTU21D;33620;52.340;5.984;2023-04-03T13:36:45;10.16;37.34
47861;HTU21D;33620;52.340;5.984;2023-04-03T13:41:40;10.13;38.01
47861;HTU21D;33620;52.340;5.984;2023-04-03T13:46:46;10.09;39.42
47861;HTU21D;33620;52.340;5.984;2023-04-03T13:51:56;10.10;38.46
47861;HTU21D;33620;52.340;5.984;2023-04-03T13:54:28;10.13;37.56
47861;HTU21D;33620;52.340;5.984;2023-04-03T13:56:54;10.18;39.63
47861;HTU21D;33620;52.340;5.984;2023-04-03T13:59:27;10.25;39.28
47861;HTU21D;33620;52.340;5.984;2023-04-03T14:04:28;10.42;39.43
47861;HTU21D;33620;52.340;5.984;2023-04-03T14:06:54;10.56;39.55
47861;HTU21D;33620;52.340;5.984;2023-04-03T14:09:19;10.53;39.30
47861;HTU21D;33620;52.340;5.984;2023-04-03T14:11:46;10.59;39.06
47861;HTU21D;33620;52.340;5.984;2023-04-03T14:14:14;10.63;39.66
47861;HTU21D;33620;52.340;5.984;2023-04-03T14:16:41;10.58;38.41
47861;HTU21D;33620;52.340;5.984;2023-04-03T14:19:06;10.48;39.08
47861;HTU21D;33620;52.340;5.984;2023-04-03T14:21:32;10.58;39.88
47861;HTU21D;33620;52.340;5.984;2023-04-03T14:23:57;10.68;40.41
47861;HTU21D;33620;52.340;5.984;2023-04-03T14:26:23;10.74;40.88
47861;HTU21D;33620;52.340;5.984;2023-04-03T14:28:51;10.72;40.04
47861;HTU21D;33620;52.340;5.984;2023-04-03T14:31:16;10.67;39.77
47861;HTU21D;33620;52.340;5.984;2023-04-03T14:33:42;10.50;39.62
47861;HTU21D;33620;52.340;5.984;2023-04-03T14:36:12;10.33;38.91
47861;HTU21D;33620;52.340;5.984;2023-04-03T14:38:37;10.33;39.59
47861;HTU21D;33620;52.340;5.984;2023-04-03T14:41:03;10.26;40.08
47861;HTU21D;33620;52.340;5.984;2023-04-03T14:43:28;10.27;40.42
47861;HTU21D;33620;52.340;5.984;2023-04-03T14:45:53;10.36;40.93
47861;HTU21D;33620;52.340;5.984;2023-04-03T14:48:21;10.39;39.91
47861;HTU21D;33620;52.340;5.984;2023-04-03T14:50:50;10.16;38.17
47861;HTU21D;33620;52.340;5.984;2023-04-03T14:53:16;10.24;39.94
47861;HTU21D;33620;52.340;5.984;2023-04-03T14:55:43;10.28;39.33
47861;HTU21D;33620;52.340;5.984;2023-04-03T14:58:12;10.36;40.14
47861;HTU21D;33620;52.340;5.984;2023-04-03T15:00:37;10.42;40.41
47861;HTU21D;33620;52.340;5.984;2023-04-03T15:03:03;10.54;40.10
47861;HTU21D;33620;52.340;5.984;2023-04-03T15:05:28;10.56;39.12
47861;HTU21D;33620;52.340;5.984;2023-04-03T15:07:54;10.64;39.24
47861;HTU21D;33620;52.340;5.984;2023-04-03T15:12:47;10.42;38.78
47861;HTU21D;33620;52.340;5.984;2023-04-03T15:15:13;10.48;40.07
47861;HTU21D;33620;52.340;5.984;2023-04-03T15:17:39;10.53;39.49
47861;HTU21D;33620;52.340;5.984;2023-04-03T15:20:15;10.60;39.96
47861;HTU21D;33620;52.340;5.984;2023-04-03T15:22:40;10.71;40.02
47861;HTU21D;33620;52.340;5.984;2023-04-03T15:25:06;10.64;39.72
47861;HTU21D;33620;52.340;5.984;2023-04-03T15:27:31;10.64;40.23
47861;HTU21D;33620;52.340;5.984;2023-04-03T15:29:56;10.60;40.67
47861;HTU21D;33620;52.340;5.984;2023-04-03T15:32:22;10.62;40.13
47861;HTU21D;33620;52.340;5.984;2023-04-03T15:34:47;10.59;40.46
47861;HTU21D;33620;52.340;5.984;2023-04-03T15:37:12;10.53;39.56
47861;HTU21D;33620;52.340;5.984;2023-04-03T15:39:38;10.45;39.32
47861;HTU21D;33620;52.340;5.984;2023-04-03T15:42:03;10.30;39.75
47861;HTU21D;33620;52.340;5.984;2023-04-03T15:44:31;10.40;40.36
47861;HTU21D;33620;52.340;5.984;2023-04-03T15:46:57;10.30;40.08
47861;HTU21D;33620;52.340;5.984;2023-04-03T15:49:23;10.33;40.10
47861;HTU21D;33620;52.340;5.984;2023-04-03T15:51:48;10.31;40.42
47861;HTU21D;33620;52.340;5.984;2023-04-03T15:54:13;10.42;40.40
47861;HTU21D;33620;52.340;5.984;2023-04-03T15:56:38;10.41;39.68
47861;HTU21D;33620;52.340;5.984;2023-04-03T15:59:04;10.46;40.29
47861;HTU21D;33620;52.340;5.984;2023-04-03T16:01:29;10.43;40.33
47861;HTU21D;33620;52.340;5.984;2023-04-03T16:03:55;10.45;39.23
47861;HTU21D;33620;52.340;5.984;2023-04-03T16:06:21;10.44;39.33
47861;HTU21D;33620;52.340;5.984;2023-04-03T16:08:46;10.35;38.87
47861;HTU21D;33620;52.340;5.984;2023-04-03T16:11:12;10.35;39.64
47861;HTU21D;33620;52.340;5.984;2023-04-03T16:13:38;10.43;39.88
47861;HTU21D;33620;52.340;5.984;2023-04-03T16:16:03;10.40;39.02
47861;HTU21D;33620;52.340;5.984;2023-04-03T16:18:29;10.40;38.88
47861;HTU21D;33620;52.340;5.984;2023-04-03T16:20:54;10.33;37.99
47861;HTU21D;33620;52.340;5.984;2023-04-03T16:23:20;10.26;38.95
47861;HTU21D;33620;52.340;5.984;2023-04-03T16:25:45;10.23;39.10
47861;HTU21D;33620;52.340;5.984;2023-04-03T16:28:15;10.15;39.30
47861;HTU21D;33620;52.340;5.984;2023-04-03T16:30:42;10.10;39.32
47861;HTU21D;33620;52.340;5.984;2023-04-03T16:33:08;10.15;40.23
47861;HTU21D;33620;52.340;5.984;2023-04-03T16:35:34;10.18;41.25
47861;HTU21D;33620;52.340;5.984;2023-04-03T16:37:59;10.16;41.04
47861;HTU21D;33620;52.340;5.984;2023-04-03T16:40:24;10.11;42.20
47861;HTU21D;33620;52.340;5.984;2023-04-03T16:42:50;10.09;42.28
47861;HTU21D;33620;52.340;5.984;2023-04-03T16:45:15;10.12;42.49
47861;HTU21D;33620;52.340;5.984;2023-04-03T16:47:40;10.00;40.81
47861;HTU21D;33620;52.340;5.984;2023-04-03T16:50:06;9.90;40.26
47861;HTU21D;33620;52.340;5.984;2023-04-03T16:52:31;9.79;40.50
47861;HTU21D;33620;52.340;5.984;2023-04-03T16:54:57;9.84;41.44